sensor_id;sensor_type;location;lat;lon;timestamp;temperature;humidity
11055;DHT22;5580;50.106;8.702;2022-09-21T00:02:24;13.10;99.90
11055;DHT22;5580;50.106;8.702;2022-09-21T00:04:50;13.10;99.90
11055;DHT22;5580;50.106;8.702;2022-09-21T00:07:15;12.90;99.90
11055;DHT22;5580;50.106;8.702;2022-09-21T00:09:41;12.80;99.90
11055;DHT22;5580;50.106;8.702;2022-09-21T00:12:06;12.70;99.90
11055;DHT22;5580;50.106;8.702;2022-09-21T00:14:33;12.70;99.90
11055;DHT22;5580;50.106;8.702;2022-09-21T00:16:59;12.60;99.90
11055;DHT22;5580;50.106;8.702;2022-09-21T00:19:24;12.60;99.90
11055;DHT22;5580;50.106;8.702;2022-09-21T00:21:53;12.60;99.90
11055;DHT22;5580;50.106;8.702;2022-09-21T00:24:19;12.60;99.90
11055;DHT22;5580;50.106;8.702;2022-09-21T00:26:44;12.60;99.90
11055;DHT22;5580;50.106;8.702;2022-09-21T00:29:10;12.60;99.90
11055;DHT22;5580;50.106;8.702;2022-09-21T00:31:35;12.60;99.90
11055;DHT22;5580;50.106;8.702;2022-09-21T00:34:02;12.70;99.90
11055;DHT22;5580;50.106;8.702;2022-09-21T00:36:28;12.60;99.90
11055;DHT22;5580;50.106;8.702;2022-09-21T00:38:56;12.60;99.90
11055;DHT22;5580;50.106;8.702;2022-09-21T00:41:22;12.60;99.90
11055;DHT22;5580;50.106;8.702;2022-09-21T00:46:42;12.60;99.90
11055;DHT22;5580;50.106;8.702;2022-09-21T00:49:09;12.50;99.90
11055;DHT22;5580;50.106;8.702;2022-09-21T00:51:36;12.40;99.90
11055;DHT22;5580;50.106;8.702;2022-09-21T00:54:07;12.40;99.90
11055;DHT22;5580;50.106;8.702;2022-09-21T00:56:35;12.30;99.90
11055;DHT22;5580;50.106;8.702;2022-09-21T00:59:02;12.40;99.90
11055;DHT22;5580;50.106;8.702;2022-09-21T01:01:28;12.40;99.90
11055;DHT22;5580;50.106;8.702;2022-09-21T01:03:53;12.30;99.90
11055;DHT22;5580;50.106;8.702;2022-09-21T01:06:21;12.30;99.90
11055;DHT22;5580;50.106;8.702;2022-09-21T01:08:51;12.30;99.90
11055;DHT22;5580;50.106;8.702;2022-09-21T01:14:24;12.30;99.90
11055;DHT22;5580;50.106;8.702;2022-09-21T01:17:15;12.20;99.90
11055;DHT22;5580;50.106;8.702;2022-09-21T01:23:08;12.10;99.90
11055;DHT22;5580;50.106;8.702;2022-09-21T01:31:20;12.10;99.90
11055;DHT22;5580;50.106;8.702;2022-09-21T01:33:52;12.10;99.90
11055;DHT22;5580;50.106;8.702;2022-09-21T01:36:23;12.10;99.90
11055;DHT22;5580;50.106;8.702;2022-09-21T01:39:10;12.10;99.90
11055;DHT22;5580;50.106;8.702;2022-09-21T01:41:39;12.00;99.90
11055;DHT22;5580;50.106;8.702;2022-09-21T01:44:09;11.80;99.90
11055;DHT22;5580;50.106;8.702;2022-09-21T01:46:37;11.70;99.90
11055;DHT22;5580;50.106;8.702;2022-09-21T01:49:12;11.70;99.90
11055;DHT22;5580;50.106;8.702;2022-09-21T01:51:43;11.80;99.90
11055;DHT22;5580;50.106;8.702;2022-09-21T01:54:14;11.80;99.90
11055;DHT22;5580;50.106;8.702;2022-09-21T01:57:04;11.80;99.90
11055;DHT22;5580;50.106;8.702;2022-09-21T01:59:37;11.90;99.90
11055;DHT22;5580;50.106;8.702;2022-09-21T02:02:10;11.80;99.90
11055;DHT22;5580;50.106;8.702;2022-09-21T02:04:38;11.80;99.90
11055;DHT22;5580;50.106;8.702;2022-09-21T02:07:05;11.60;99.90
11055;DHT22;5580;50.106;8.702;2022-09-21T02:09:33;11.50;99.90
11055;DHT22;5580;50.106;8.702;2022-09-21T02:11:59;11.50;99.90
11055;DHT22;5580;50.106;8.702;2022-09-21T02:14:26;11.40;99.90
11055;DHT22;5580;50.106;8.702;2022-09-21T02:17:40;11.30;99.90
11055;DHT22;5580;50.106;8.702;2022-09-21T02:19:56;11.30;99.90
11055;DHT22;5580;50.106;8.702;2022-09-21T02:22:38;11.30;99.90
11055;DHT22;5580;50.106;8.702;2022-09-21T02:25:43;11.30;99.90
11055;DHT22;5580;50.106;8.702;2022-09-21T02:28:25;11.30;99.90
11055;DHT22;5580;50.106;8.702;2022-09-21T02:31:03;11.30;99.90
11055;DHT22;5580;50.106;8.702;2022-09-21T02:33:39;11.40;99.90
11055;DHT22;5580;50.106;8.702;2022-09-21T02:36:12;11.40;99.90
11055;DHT22;5580;50.106;8.702;2022-09-21T02:46:29;11.40;99.90
11055;DHT22;5580;50.106;8.702;2022-09-21T02:49:03;11.30;99.90
11055;DHT22;5580;50.106;8.702;2022-09-21T02:51:42;11.30;99.90
11055;DHT22;5580;50.106;8.702;2022-09-21T02:54:10;11.30;99.90
11055;DHT22;5580;50.106;8.702;2022-09-21T02:56:38;11.40;99.90
11055;DHT22;5580;50.106;8.702;2022-09-21T02:59:05;11.30;99.90
11055;DHT22;5580;50.106;8.702;2022-09-21T03:01:33;11.30;99.90
11055;DHT22;5580;50.106;8.702;2022-09-21T03:03:59;11.20;99.90
11055;DHT22;5580;50.106;8.702;2022-09-21T03:06:25;11.20;99.90
11055;DHT22;5580;50.106;8.702;2022-09-21T03:08:50;11.30;99.90
11055;DHT22;5580;50.106;8.702;2022-09-21T03:11:17;11.30;99.90
11055;DHT22;5580;50.106;8.702;2022-09-21T03:13:43;11.30;99.90
11055;DHT22;5580;50.106;8.702;2022-09-21T03:16:09;11.20;99.90
11055;DHT22;5580;50.106;8.702;2022-09-21T03:18:35;11.20;99.90
11055;DHT22;5580;50.106;8.702;2022-09-21T03:21:01;11.10;99.90
11055;DHT22;5580;50.106;8.702;2022-09-21T03:23:27;11.20;99.90
11055;DHT22;5580;50.106;8.702;2022-09-21T03:25:53;11.10;99.90
11055;DHT22;5580;50.106;8.702;2022-09-21T03:28:20;11.10;99.90
11055;DHT22;5580;50.106;8.702;2022-09-21T03:30:48;11.00;99.90
11055;DHT22;5580;50.106;8.702;2022-09-21T03:33:15;10.90;99.90
11055;DHT22;5580;50.106;8.702;2022-09-21T03:35:40;10.80;99.90
11055;DHT22;5580;50.106;8.702;2022-09-21T03:38:07;10.80;99.90
11055;DHT22;5580;50.106;8.702;2022-09-21T03:40:32;10.80;99.90
11055;DHT22;5580;50.106;8.702;2022-09-21T03:42:58;10.80;99.90
11055;DHT22;5580;50.106;8.702;2022-09-21T03:45:24;10.60;99.90
11055;DHT22;5580;50.106;8.702;2022-09-21T03:47:54;10.50;99.90
11055;DHT22;5580;50.106;8.702;2022-09-21T03:50:21;10.50;99.90
11055;DHT22;5580;50.106;8.702;2022-09-21T03:52:46;10.40;99.90
11055;DHT22;5580;50.106;8.702;2022-09-21T03:55:12;10.30;99.90
11055;DHT22;5580;50.106;8.702;2022-09-21T03:57:37;10.30;99.90
11055;DHT22;5580;50.106;8.702;2022-09-21T04:00:06;10.30;99.90
11055;DHT22;5580;50.106;8.702;2022-09-21T04:02:33;10.40;99.90
11055;DHT22;5580;50.106;8.702;2022-09-21T04:04:59;10.40;99.90
11055;DHT22;5580;50.106;8.702;2022-09-21T04:07:25;10.40;99.90
11055;DHT22;5580;50.106;8.702;2022-09-21T04:09:50;10.40;99.90
11055;DHT22;5580;50.106;8.702;2022-09-21T04:12:20;10.40;99.90
11055;DHT22;5580;50.106;8.702;2022-09-21T04:14:46;10.40;99.90
11055;DHT22;5580;50.106;8.702;2022-09-21T04:17:11;10.40;99.90
11055;DHT22;5580;50.106;8.702;2022-09-21T04:19:37;10.50;99.90
11055;DHT22;5580;50.106;8.702;2022-09-21T04:22:02;10.50;99.90
11055;DHT22;5580;50.106;8.702;2022-09-21T04:24:28;10.50;99.90
11055;DHT22;5580;50.106;8.702;2022-09-21T04:26:55;10.50;99.90
11055;DHT22;5580;50.106;8.702;2022-09-21T04:29:20;10.40;99.90
11055;DHT22;5580;50.106;8.702;2022-09-21T04:31:46;10.30;99.90
11055;DHT22;5580;50.106;8.702;2022-09-21T04:34:12;10.20;99.90
11055;DHT22;5580;50.106;8.702;2022-09-21T04:36:38;10.20;99.90
11055;DHT22;5580;50.106;8.702;2022-09-21T04:39:04;10.10;99.90
11055;DHT22;5580;50.106;8.702;2022-09-21T04:41:30;10.00;99.90
11055;DHT22;5580;50.106;8.702;2022-09-21T04:43:56;10.00;99.90
11055;DHT22;5580;50.106;8.702;2022-09-21T04:46:21;10.00;99.90
11055;DHT22;5580;50.106;8.702;2022-09-21T04:48:47;10.00;99.90
11055;DHT22;5580;50.106;8.702;2022-09-21T04:51:14;10.00;99.90
11055;DHT22;5580;50.106;8.702;2022-09-21T04:53:41;10.10;99.90
11055;DHT22;5580;50.106;8.702;2022-09-21T04:56:08;10.10;99.90
11055;DHT22;5580;50.106;8.702;2022-09-21T04:58:34;10.10;99.90
11055;DHT22;5580;50.106;8.702;2022-09-21T05:01:01;10.00;99.90
11055;DHT22;5580;50.106;8.702;2022-09-21T05:03:27;9.90;99.90
11055;DHT22;5580;50.106;8.702;2022-09-21T05:05:54;9.90;99.90
11055;DHT22;5580;50.106;8.702;2022-09-21T05:08:21;9.90;99.90
11055;DHT22;5580;50.106;8.702;2022-09-21T05:11:06;9.90;99.90
11055;DHT22;5580;50.106;8.702;2022-09-21T05:13:32;9.90;99.90
11055;DHT22;5580;50.106;8.702;2022-09-21T05:15:57;9.80;99.90
11055;DHT22;5580;50.106;8.702;2022-09-21T05:18:23;9.80;99.90
11055;DHT22;5580;50.106;8.702;2022-09-21T05:20:55;9.70;99.90
11055;DHT22;5580;50.106;8.702;2022-09-21T05:23:22;9.80;99.90
11055;DHT22;5580;50.106;8.702;2022-09-21T05:25:48;9.80;99.90
11055;DHT22;5580;50.106;8.702;2022-09-21T05:28:18;9.70;99.90
11055;DHT22;5580;50.106;8.702;2022-09-21T05:31:08;9.70;99.90
11055;DHT22;5580;50.106;8.702;2022-09-21T05:33:33;9.70;99.90
11055;DHT22;5580;50.106;8.702;2022-09-21T05:36:40;9.80;99.90
11055;DHT22;5580;50.106;8.702;2022-09-21T05:39:09;9.80;99.90
11055;DHT22;5580;50.106;8.702;2022-09-21T05:41:36;9.80;99.90
11055;DHT22;5580;50.106;8.702;2022-09-21T05:44:02;9.80;99.90
11055;DHT22;5580;50.106;8.702;2022-09-21T05:46:37;9.90;99.90
11055;DHT22;5580;50.106;8.702;2022-09-21T05:49:16;9.90;99.90
11055;DHT22;5580;50.106;8.702;2022-09-21T05:51:49;10.00;99.90
11055;DHT22;5580;50.106;8.702;2022-09-21T05:57:37;10.00;99.90
11055;DHT22;5580;50.106;8.702;2022-09-21T06:00:18;10.10;99.90
11055;DHT22;5580;50.106;8.702;2022-09-21T06:05:41;10.10;99.90
11055;DHT22;5580;50.106;8.702;2022-09-21T06:08:07;10.20;99.90
11055;DHT22;5580;50.106;8.702;2022-09-21T06:10:33;10.20;99.90
11055;DHT22;5580;50.106;8.702;2022-09-21T06:12:59;10.30;99.90
11055;DHT22;5580;50.106;8.702;2022-09-21T06:15:25;10.30;99.90
11055;DHT22;5580;50.106;8.702;2022-09-21T06:17:50;10.30;99.90
11055;DHT22;5580;50.106;8.702;2022-09-21T06:20:16;10.30;99.90
11055;DHT22;5580;50.106;8.702;2022-09-21T06:22:42;10.30;99.90
11055;DHT22;5580;50.106;8.702;2022-09-21T06:25:08;10.20;99.90
11055;DHT22;5580;50.106;8.702;2022-09-21T06:27:33;10.20;99.90
11055;DHT22;5580;50.106;8.702;2022-09-21T06:29:59;10.10;99.90
11055;DHT22;5580;50.106;8.702;2022-09-21T06:32:24;10.10;99.90
11055;DHT22;5580;50.106;8.702;2022-09-21T06:34:50;10.20;99.90
11055;DHT22;5580;50.106;8.702;2022-09-21T06:37:16;10.20;99.90
11055;DHT22;5580;50.106;8.702;2022-09-21T06:39:41;10.10;99.90
11055;DHT22;5580;50.106;8.702;2022-09-21T06:42:07;10.10;99.90
11055;DHT22;5580;50.106;8.702;2022-09-21T06:44:32;10.10;99.90
11055;DHT22;5580;50.106;8.702;2022-09-21T06:46:58;10.20;99.90
11055;DHT22;5580;50.106;8.702;2022-09-21T06:49:23;10.20;99.90
11055;DHT22;5580;50.106;8.702;2022-09-21T06:51:51;10.30;99.90
11055;DHT22;5580;50.106;8.702;2022-09-21T06:54:17;10.40;99.90
11055;DHT22;5580;50.106;8.702;2022-09-21T06:56:42;10.40;99.90
11055;DHT22;5580;50.106;8.702;2022-09-21T06:59:08;10.50;99.90
11055;DHT22;5580;50.106;8.702;2022-09-21T07:01:34;10.50;99.90
11055;DHT22;5580;50.106;8.702;2022-09-21T07:03:59;10.50;99.90
11055;DHT22;5580;50.106;8.702;2022-09-21T07:06:25;10.40;99.90
11055;DHT22;5580;50.106;8.702;2022-09-21T07:08:51;10.30;99.90
11055;DHT22;5580;50.106;8.702;2022-09-21T07:11:18;10.30;99.90
11055;DHT22;5580;50.106;8.702;2022-09-21T07:13:43;10.30;99.90
11055;DHT22;5580;50.106;8.702;2022-09-21T07:16:09;10.40;99.90
11055;DHT22;5580;50.106;8.702;2022-09-21T07:18:39;10.40;99.90
11055;DHT22;5580;50.106;8.702;2022-09-21T07:21:07;10.40;99.90
11055;DHT22;5580;50.106;8.702;2022-09-21T07:23:33;10.40;99.90
11055;DHT22;5580;50.106;8.702;2022-09-21T07:26:02;10.30;99.90
11055;DHT22;5580;50.106;8.702;2022-09-21T07:28:28;10.20;99.90
11055;DHT22;5580;50.106;8.702;2022-09-21T07:30:55;10.20;99.90
11055;DHT22;5580;50.106;8.702;2022-09-21T07:33:22;10.20;99.90
11055;DHT22;5580;50.106;8.702;2022-09-21T07:35:52;10.20;99.90
11055;DHT22;5580;50.106;8.702;2022-09-21T07:38:18;10.20;99.90
11055;DHT22;5580;50.106;8.702;2022-09-21T07:40:44;10.20;99.90
11055;DHT22;5580;50.106;8.702;2022-09-21T07:43:10;10.20;99.90
11055;DHT22;5580;50.106;8.702;2022-09-21T07:45:35;10.20;99.90
11055;DHT22;5580;50.106;8.702;2022-09-21T07:48:03;10.20;99.90
11055;DHT22;5580;50.106;8.702;2022-09-21T07:50:28;10.30;99.90
11055;DHT22;5580;50.106;8.702;2022-09-21T07:52:54;10.30;99.90
11055;DHT22;5580;50.106;8.702;2022-09-21T07:55:19;10.30;99.90
11055;DHT22;5580;50.106;8.702;2022-09-21T07:57:48;10.30;99.90
11055;DHT22;5580;50.106;8.702;2022-09-21T08:00:52;10.30;99.90
11055;DHT22;5580;50.106;8.702;2022-09-21T08:03:18;10.30;99.90
11055;DHT22;5580;50.106;8.702;2022-09-21T08:05:44;10.30;99.90
11055;DHT22;5580;50.106;8.702;2022-09-21T08:08:10;10.30;99.90
11055;DHT22;5580;50.106;8.702;2022-09-21T08:10:35;10.30;99.90
11055;DHT22;5580;50.106;8.702;2022-09-21T08:13:01;10.50;99.90
11055;DHT22;5580;50.106;8.702;2022-09-21T08:15:27;10.60;99.90
11055;DHT22;5580;50.106;8.702;2022-09-21T08:17:53;10.70;99.90
11055;DHT22;5580;50.106;8.702;2022-09-21T08:20:19;10.70;99.90
11055;DHT22;5580;50.106;8.702;2022-09-21T08:22:46;10.80;99.90
11055;DHT22;5580;50.106;8.702;2022-09-21T08:25:12;10.90;99.90
11055;DHT22;5580;50.106;8.702;2022-09-21T08:27:37;11.00;99.90
11055;DHT22;5580;50.106;8.702;2022-09-21T08:30:05;11.00;99.90
11055;DHT22;5580;50.106;8.702;2022-09-21T08:32:32;11.00;99.90
11055;DHT22;5580;50.106;8.702;2022-09-21T08:34:57;11.00;99.90
11055;DHT22;5580;50.106;8.702;2022-09-21T08:37:23;11.10;99.90
11055;DHT22;5580;50.106;8.702;2022-09-21T08:39:49;11.20;99.90
11055;DHT22;5580;50.106;8.702;2022-09-21T08:42:41;11.30;99.90
11055;DHT22;5580;50.106;8.702;2022-09-21T08:45:15;11.40;99.90
11055;DHT22;5580;50.106;8.702;2022-09-21T08:47:48;11.50;99.90
11055;DHT22;5580;50.106;8.702;2022-09-21T08:50:33;11.60;99.90
11055;DHT22;5580;50.106;8.702;2022-09-21T08:53:04;11.60;99.90
11055;DHT22;5580;50.106;8.702;2022-09-21T08:55:31;11.80;99.90
11055;DHT22;5580;50.106;8.702;2022-09-21T08:57:58;11.80;99.90
11055;DHT22;5580;50.106;8.702;2022-09-21T09:00:26;11.90;99.90
11055;DHT22;5580;50.106;8.702;2022-09-21T09:03:20;12.00;99.90
11055;DHT22;5580;50.106;8.702;2022-09-21T09:16:45;12.30;99.90
11055;DHT22;5580;50.106;8.702;2022-09-21T09:19:21;12.40;99.90
11055;DHT22;5580;50.106;8.702;2022-09-21T09:21:49;12.50;99.90
11055;DHT22;5580;50.106;8.702;2022-09-21T09:24:37;12.50;99.90
11055;DHT22;5580;50.106;8.702;2022-09-21T09:27:11;12.70;99.90
11055;DHT22;5580;50.106;8.702;2022-09-21T09:29:59;12.70;99.90
11055;DHT22;5580;50.106;8.702;2022-09-21T09:35:37;12.80;99.90
11055;DHT22;5580;50.106;8.702;2022-09-21T09:46:51;13.00;99.90
11055;DHT22;5580;50.106;8.702;2022-09-21T09:52:15;13.10;99.90
11055;DHT22;5580;50.106;8.702;2022-09-21T09:54:41;13.20;99.90
11055;DHT22;5580;50.106;8.702;2022-09-21T09:57:08;13.20;99.90
11055;DHT22;5580;50.106;8.702;2022-09-21T09:59:45;13.30;99.90
11055;DHT22;5580;50.106;8.702;2022-09-21T10:02:24;13.40;99.90
11055;DHT22;5580;50.106;8.702;2022-09-21T10:05:03;13.40;99.90
11055;DHT22;5580;50.106;8.702;2022-09-21T10:10:21;13.70;99.90
11055;DHT22;5580;50.106;8.702;2022-09-21T10:12:49;13.70;99.90
11055;DHT22;5580;50.106;8.702;2022-09-21T10:15:16;13.80;99.90
11055;DHT22;5580;50.106;8.702;2022-09-21T10:17:44;13.90;99.90
11055;DHT22;5580;50.106;8.702;2022-09-21T10:20:18;14.00;99.90
11055;DHT22;5580;50.106;8.702;2022-09-21T10:22:47;14.10;99.90
11055;DHT22;5580;50.106;8.702;2022-09-21T10:25:18;14.20;99.90
11055;DHT22;5580;50.106;8.702;2022-09-21T10:27:47;14.20;99.90
11055;DHT22;5580;50.106;8.702;2022-09-21T10:32:56;14.30;99.90
11055;DHT22;5580;50.106;8.702;2022-09-21T10:35:22;14.30;99.90
11055;DHT22;5580;50.106;8.702;2022-09-21T10:37:48;14.40;99.90
11055;DHT22;5580;50.106;8.702;2022-09-21T10:40:35;14.40;99.90
11055;DHT22;5580;50.106;8.702;2022-09-21T10:43:01;14.30;99.90
11055;DHT22;5580;50.106;8.702;2022-09-21T10:45:29;14.30;99.90
11055;DHT22;5580;50.106;8.702;2022-09-21T10:48:14;14.40;99.90
11055;DHT22;5580;50.106;8.702;2022-09-21T10:50:46;14.30;99.90
11055;DHT22;5580;50.106;8.702;2022-09-21T10:53:30;14.40;99.90
11055;DHT22;5580;50.106;8.702;2022-09-21T10:58:37;14.40;99.90
11055;DHT22;5580;50.106;8.702;2022-09-21T11:01:22;14.40;99.90
11055;DHT22;5580;50.106;8.702;2022-09-21T11:07:27;14.50;99.90
11055;DHT22;5580;50.106;8.702;2022-09-21T11:15:19;14.50;99.90
11055;DHT22;5580;50.106;8.702;2022-09-21T11:18:07;14.50;99.90
11055;DHT22;5580;50.106;8.702;2022-09-21T11:20:53;14.50;99.90
11055;DHT22;5580;50.106;8.702;2022-09-21T11:23:30;14.50;99.90
11055;DHT22;5580;50.106;8.702;2022-09-21T11:28:45;14.70;99.90
11055;DHT22;5580;50.106;8.702;2022-09-21T11:39:13;14.70;99.90
11055;DHT22;5580;50.106;8.702;2022-09-21T11:47:01;14.80;99.90
11055;DHT22;5580;50.106;8.702;2022-09-21T11:55:40;14.80;99.90
11055;DHT22;5580;50.106;8.702;2022-09-21T11:58:30;14.80;99.90
11055;DHT22;5580;50.106;8.702;2022-09-21T12:01:11;14.90;99.90
11055;DHT22;5580;50.106;8.702;2022-09-21T12:04:30;14.90;99.90
11055;DHT22;5580;50.106;8.702;2022-09-21T12:06:54;14.90;99.90
11055;DHT22;5580;50.106;8.702;2022-09-21T12:23:35;15.10;99.90
11055;DHT22;5580;50.106;8.702;2022-09-21T12:26:04;15.20;99.90
11055;DHT22;5580;50.106;8.702;2022-09-21T12:28:38;15.20;99.90
11055;DHT22;5580;50.106;8.702;2022-09-21T12:31:19;15.20;99.90
11055;DHT22;5580;50.106;8.702;2022-09-21T12:34:00;15.30;99.90
11055;DHT22;5580;50.106;8.702;2022-09-21T12:36:39;15.30;99.90
11055;DHT22;5580;50.106;8.702;2022-09-21T12:39:22;15.30;99.90
11055;DHT22;5580;50.106;8.702;2022-09-21T12:41:59;15.30;99.90
11055;DHT22;5580;50.106;8.702;2022-09-21T12:44:46;15.30;99.90
11055;DHT22;5580;50.106;8.702;2022-09-21T12:50:25;15.30;99.90
11055;DHT22;5580;50.106;8.702;2022-09-21T12:52:52;15.30;99.90
11055;DHT22;5580;50.106;8.702;2022-09-21T12:58:06;15.40;99.90
11055;DHT22;5580;50.106;8.702;2022-09-21T13:00:46;15.40;99.90
11055;DHT22;5580;50.106;8.702;2022-09-21T13:03:20;15.40;99.90
11055;DHT22;5580;50.106;8.702;2022-09-21T13:08:42;15.50;99.90
11055;DHT22;5580;50.106;8.702;2022-09-21T13:11:11;15.50;99.90
11055;DHT22;5580;50.106;8.702;2022-09-21T13:13:44;15.50;99.90
11055;DHT22;5580;50.106;8.702;2022-09-21T13:16:32;15.60;99.90
11055;DHT22;5580;50.106;8.702;2022-09-21T13:21:37;15.70;99.90
11055;DHT22;5580;50.106;8.702;2022-09-21T13:24:06;15.70;99.90
11055;DHT22;5580;50.106;8.702;2022-09-21T13:26:42;15.70;99.90
11055;DHT22;5580;50.106;8.702;2022-09-21T13:32:00;15.70;99.90
11055;DHT22;5580;50.106;8.702;2022-09-21T13:39:36;15.80;99.90
11055;DHT22;5580;50.106;8.702;2022-09-21T13:47:35;15.80;99.90
11055;DHT22;5580;50.106;8.702;2022-09-21T13:50:40;15.90;99.90
11055;DHT22;5580;50.106;8.702;2022-09-21T13:55:52;15.90;99.90
11055;DHT22;5580;50.106;8.702;2022-09-21T13:58:25;15.90;99.90
11055;DHT22;5580;50.106;8.702;2022-09-21T14:03:26;15.90;99.90
11055;DHT22;5580;50.106;8.702;2022-09-21T14:06:04;16.00;99.90
11055;DHT22;5580;50.106;8.702;2022-09-21T14:14:36;16.00;99.90
11055;DHT22;5580;50.106;8.702;2022-09-21T14:16:58;16.00;99.90
11055;DHT22;5580;50.106;8.702;2022-09-21T14:27:35;15.90;99.90
11055;DHT22;5580;50.106;8.702;2022-09-21T14:30:15;15.90;99.90
11055;DHT22;5580;50.106;8.702;2022-09-21T14:33:02;16.00;99.90
11055;DHT22;5580;50.106;8.702;2022-09-21T14:35:33;16.00;99.90
11055;DHT22;5580;50.106;8.702;2022-09-21T14:38:04;16.00;99.90
11055;DHT22;5580;50.106;8.702;2022-09-21T14:40:36;16.00;99.90
11055;DHT22;5580;50.106;8.702;2022-09-21T14:43:09;16.10;99.90
11055;DHT22;5580;50.106;8.702;2022-09-21T14:46:11;16.10;99.90
11055;DHT22;5580;50.106;8.702;2022-09-21T15:02:40;16.10;99.90
11055;DHT22;5580;50.106;8.702;2022-09-21T15:05:17;16.10;99.90
11055;DHT22;5580;50.106;8.702;2022-09-21T15:13:45;16.10;99.90
11055;DHT22;5580;50.106;8.702;2022-09-21T15:18:48;16.20;99.90
11055;DHT22;5580;50.106;8.702;2022-09-21T15:21:24;16.20;99.90
11055;DHT22;5580;50.106;8.702;2022-09-21T15:23:51;16.20;99.90
11055;DHT22;5580;50.106;8.702;2022-09-21T15:26:28;16.30;99.90
11055;DHT22;5580;50.106;8.702;2022-09-21T15:29:01;16.30;99.90
11055;DHT22;5580;50.106;8.702;2022-09-21T15:31:36;16.30;99.90
11055;DHT22;5580;50.106;8.702;2022-09-21T15:34:06;16.40;99.90
11055;DHT22;5580;50.106;8.702;2022-09-21T15:36:36;16.40;99.90
11055;DHT22;5580;50.106;8.702;2022-09-21T15:39:02;16.40;99.90
11055;DHT22;5580;50.106;8.702;2022-09-21T15:42:07;16.40;99.90
11055;DHT22;5580;50.106;8.702;2022-09-21T15:44:37;16.50;99.90
11055;DHT22;5580;50.106;8.702;2022-09-21T15:47:07;16.50;99.90
11055;DHT22;5580;50.106;8.702;2022-09-21T15:49:39;16.50;99.90
11055;DHT22;5580;50.106;8.702;2022-09-21T15:52:26;16.50;99.90
11055;DHT22;5580;50.106;8.702;2022-09-21T15:54:58;16.50;99.90
11055;DHT22;5580;50.106;8.702;2022-09-21T15:57:36;16.60;99.90
11055;DHT22;5580;50.106;8.702;2022-09-21T16:00:17;16.60;99.90
11055;DHT22;5580;50.106;8.702;2022-09-21T16:03:04;16.60;99.90
11055;DHT22;5580;50.106;8.702;2022-09-21T16:05:40;16.60;99.90
11055;DHT22;5580;50.106;8.702;2022-09-21T16:10:50;16.60;99.90
11055;DHT22;5580;50.106;8.702;2022-09-21T16:16:13;16.50;99.90
11055;DHT22;5580;50.106;8.702;2022-09-21T16:18:53;16.50;99.90
11055;DHT22;5580;50.106;8.702;2022-09-21T16:21:21;16.50;99.90
11055;DHT22;5580;50.106;8.702;2022-09-21T16:23:50;16.50;99.90
11055;DHT22;5580;50.106;8.702;2022-09-21T16:26:20;16.50;99.90
11055;DHT22;5580;50.106;8.702;2022-09-21T16:28:46;16.50;99.90
11055;DHT22;5580;50.106;8.702;2022-09-21T16:31:32;16.50;99.90
11055;DHT22;5580;50.106;8.702;2022-09-21T16:34:29;16.60;99.90
11055;DHT22;5580;50.106;8.702;2022-09-21T16:36:57;16.60;99.90
11055;DHT22;5580;50.106;8.702;2022-09-21T16:39:23;16.50;99.90
11055;DHT22;5580;50.106;8.702;2022-09-21T16:41:55;16.60;99.90
11055;DHT22;5580;50.106;8.702;2022-09-21T16:44:25;16.50;99.90
11055;DHT22;5580;50.106;8.702;2022-09-21T16:47:00;16.50;99.90
11055;DHT22;5580;50.106;8.702;2022-09-21T16:49:29;16.50;99.90
11055;DHT22;5580;50.106;8.702;2022-09-21T16:51:58;16.50;99.90
11055;DHT22;5580;50.106;8.702;2022-09-21T16:54:24;16.50;99.90
11055;DHT22;5580;50.106;8.702;2022-09-21T16:56:57;16.50;99.90
11055;DHT22;5580;50.106;8.702;2022-09-21T16:59:23;16.50;99.90
11055;DHT22;5580;50.106;8.702;2022-09-21T17:01:54;16.40;99.90
11055;DHT22;5580;50.106;8.702;2022-09-21T17:04:26;16.40;99.90
11055;DHT22;5580;50.106;8.702;2022-09-21T17:06:52;16.50;99.90
11055;DHT22;5580;50.106;8.702;2022-09-21T17:09:21;16.40;99.90
11055;DHT22;5580;50.106;8.702;2022-09-21T17:11:47;16.40;99.90
11055;DHT22;5580;50.106;8.702;2022-09-21T17:14:15;16.30;99.90
11055;DHT22;5580;50.106;8.702;2022-09-21T17:16:44;16.40;99.90
11055;DHT22;5580;50.106;8.702;2022-09-21T17:19:10;16.30;99.90
11055;DHT22;5580;50.106;8.702;2022-09-21T17:21:36;16.30;99.90
11055;DHT22;5580;50.106;8.702;2022-09-21T17:24:01;16.30;99.90
11055;DHT22;5580;50.106;8.702;2022-09-21T17:26:28;16.30;99.90
11055;DHT22;5580;50.106;8.702;2022-09-21T17:28:53;16.30;99.90
11055;DHT22;5580;50.106;8.702;2022-09-21T17:31:21;16.30;99.90
11055;DHT22;5580;50.106;8.702;2022-09-21T17:33:48;16.20;99.90
11055;DHT22;5580;50.106;8.702;2022-09-21T17:36:16;16.30;99.90
11055;DHT22;5580;50.106;8.702;2022-09-21T17:38:43;16.20;99.90
11055;DHT22;5580;50.106;8.702;2022-09-21T17:41:30;16.20;99.90
11055;DHT22;5580;50.106;8.702;2022-09-21T17:44:06;16.20;99.90
11055;DHT22;5580;50.106;8.702;2022-09-21T17:47:02;16.20;99.90
11055;DHT22;5580;50.106;8.702;2022-09-21T17:49:30;16.20;99.90
11055;DHT22;5580;50.106;8.702;2022-09-21T17:51:55;16.10;99.90
11055;DHT22;5580;50.106;8.702;2022-09-21T17:54:40;16.00;99.90
11055;DHT22;5580;50.106;8.702;2022-09-21T17:57:27;16.10;99.90
11055;DHT22;5580;50.106;8.702;2022-09-21T18:00:21;16.10;99.90
11055;DHT22;5580;50.106;8.702;2022-09-21T18:02:48;16.20;99.90
11055;DHT22;5580;50.106;8.702;2022-09-21T18:05:26;16.10;99.90
11055;DHT22;5580;50.106;8.702;2022-09-21T18:07:53;16.10;99.90
11055;DHT22;5580;50.106;8.702;2022-09-21T18:10:20;16.10;99.90
11055;DHT22;5580;50.106;8.702;2022-09-21T18:16:04;16.10;99.90
11055;DHT22;5580;50.106;8.702;2022-09-21T18:18:44;16.10;99.90
11055;DHT22;5580;50.106;8.702;2022-09-21T18:26:09;16.00;99.90
11055;DHT22;5580;50.106;8.702;2022-09-21T18:28:45;15.90;99.90
11055;DHT22;5580;50.106;8.702;2022-09-21T18:45:06;15.80;99.90
11055;DHT22;5580;50.106;8.702;2022-09-21T18:47:40;15.70;99.90
11055;DHT22;5580;50.106;8.702;2022-09-21T18:50:14;15.70;99.90
11055;DHT22;5580;50.106;8.702;2022-09-21T18:55:36;15.70;99.90
11055;DHT22;5580;50.106;8.702;2022-09-21T18:58:02;15.60;99.90
11055;DHT22;5580;50.106;8.702;2022-09-21T19:00:29;15.60;99.90
11055;DHT22;5580;50.106;8.702;2022-09-21T19:03:06;15.60;99.90
11055;DHT22;5580;50.106;8.702;2022-09-21T19:05:33;15.60;99.90
11055;DHT22;5580;50.106;8.702;2022-09-21T19:10:36;15.50;99.90
11055;DHT22;5580;50.106;8.702;2022-09-21T19:13:33;15.50;99.90
11055;DHT22;5580;50.106;8.702;2022-09-21T19:18:44;15.50;99.90
11055;DHT22;5580;50.106;8.702;2022-09-21T19:21:38;15.40;99.90
11055;DHT22;5580;50.106;8.702;2022-09-21T19:32:09;15.20;99.90
11055;DHT22;5580;50.106;8.702;2022-09-21T19:34:36;15.20;99.90
11055;DHT22;5580;50.106;8.702;2022-09-21T19:37:02;15.20;99.90
11055;DHT22;5580;50.106;8.702;2022-09-21T19:39:27;15.10;99.90
11055;DHT22;5580;50.106;8.702;2022-09-21T19:42:17;15.10;99.90
11055;DHT22;5580;50.106;8.702;2022-09-21T19:47:51;15.10;99.90
11055;DHT22;5580;50.106;8.702;2022-09-21T19:50:20;15.10;99.90
11055;DHT22;5580;50.106;8.702;2022-09-21T19:52:48;15.00;99.90
11055;DHT22;5580;50.106;8.702;2022-09-21T19:55:16;15.00;99.90